sensor_id;sensor_type;location;lat;lon;timestamp;P1;durP1;ratioP1;P2;durP2;ratioP2
870;SDS011;422;51.280;7.236;2024-03-29T00:01:04;4.00;;;2.10;;
870;SDS011;422;51.280;7.236;2024-03-29T00:03:31;3.57;;;2.07;;
870;SDS011;422;51.280;7.236;2024-03-29T00:05:58;4.13;;;2.10;;
870;SDS011;422;51.280;7.236;2024-03-29T00:08:24;3.83;;;1.70;;
870;SDS011;422;51.280;7.236;2024-03-29T00:10:50;2.73;;;1.80;;
870;SDS011;422;51.280;7.236;2024-03-29T00:13:17;4.03;;;2.43;;
870;SDS011;422;51.280;7.236;2024-03-29T00:15:46;4.07;;;2.00;;
870;SDS011;422;51.280;7.236;2024-03-29T00:18:13;4.20;;;2.10;;
870;SDS011;422;51.280;7.236;2024-03-29T00:20:39;3.10;;;1.80;;
870;SDS011;422;51.280;7.236;2024-03-29T00:23:05;5.13;;;2.03;;
870;SDS011;422;51.280;7.236;2024-03-29T00:25:32;4.40;;;2.23;;
870;SDS011;422;51.280;7.236;2024-03-29T00:27:58;3.20;;;1.70;;
870;SDS011;422;51.280;7.236;2024-03-29T00:30:24;4.80;;;2.07;;
870;SDS011;422;51.280;7.236;2024-03-29T00:32:52;4.43;;;1.90;;
870;SDS011;422;51.280;7.236;2024-03-29T00:35:18;5.10;;;2.00;;
870;SDS011;422;51.280;7.236;2024-03-29T00:37:44;3.77;;;1.87;;
870;SDS011;422;51.280;7.236;2024-03-29T00:40:11;3.07;;;1.60;;
870;SDS011;422;51.280;7.236;2024-03-29T00:42:38;3.53;;;2.00;;
870;SDS011;422;51.280;7.236;2024-03-29T00:45:04;4.37;;;2.00;;
870;SDS011;422;51.280;7.236;2024-03-29T00:47:31;3.80;;;2.03;;
870;SDS011;422;51.280;7.236;2024-03-29T00:49:59;3.13;;;1.80;;
870;SDS011;422;51.280;7.236;2024-03-29T00:52:26;3.00;;;1.90;;
870;SDS011;422;51.280;7.236;2024-03-29T00:54:52;4.60;;;1.90;;
870;SDS011;422;51.280;7.236;2024-03-29T00:57:18;2.03;;;1.47;;
870;SDS011;422;51.280;7.236;2024-03-29T00:59:45;3.30;;;2.10;;
870;SDS011;422;51.280;7.236;2024-03-29T01:02:12;2.53;;;1.60;;
870;SDS011;422;51.280;7.236;2024-03-29T01:04:38;3.40;;;1.83;;
870;SDS011;422;51.280;7.236;2024-03-29T01:07:06;5.80;;;2.07;;
870;SDS011;422;51.280;7.236;2024-03-29T01:09:32;3.60;;;1.93;;
870;SDS011;422;51.280;7.236;2024-03-29T01:11:59;3.60;;;2.27;;
870;SDS011;422;51.280;7.236;2024-03-29T01:14:25;4.40;;;1.60;;
870;SDS011;422;51.280;7.236;2024-03-29T01:16:51;6.30;;;2.20;;
870;SDS011;422;51.280;7.236;2024-03-29T01:19:18;2.77;;;1.80;;
870;SDS011;422;51.280;7.236;2024-03-29T01:21:44;5.60;;;2.47;;
870;SDS011;422;51.280;7.236;2024-03-29T01:24:12;3.17;;;1.73;;
870;SDS011;422;51.280;7.236;2024-03-29T01:26:38;4.70;;;2.30;;
870;SDS011;422;51.280;7.236;2024-03-29T01:29:07;4.40;;;2.00;;
870;SDS011;422;51.280;7.236;2024-03-29T01:31:34;2.63;;;2.00;;
870;SDS011;422;51.280;7.236;2024-03-29T01:34:00;6.00;;;1.93;;
870;SDS011;422;51.280;7.236;2024-03-29T01:36:26;5.00;;;2.23;;
870;SDS011;422;51.280;7.236;2024-03-29T01:38:52;4.03;;;1.90;;
870;SDS011;422;51.280;7.236;2024-03-29T01:41:20;4.03;;;1.90;;
870;SDS011;422;51.280;7.236;2024-03-29T01:43:46;3.57;;;2.10;;
870;SDS011;422;51.280;7.236;2024-03-29T01:46:14;3.43;;;2.00;;
870;SDS011;422;51.280;7.236;2024-03-29T01:48:41;5.10;;;1.60;;
870;SDS011;422;51.280;7.236;2024-03-29T01:51:09;2.87;;;1.80;;
870;SDS011;422;51.280;7.236;2024-03-29T01:53:38;3.83;;;1.90;;
870;SDS011;422;51.280;7.236;2024-03-29T01:56:06;4.50;;;1.90;;
870;SDS011;422;51.280;7.236;2024-03-29T01:58:36;3.77;;;1.80;;
870;SDS011;422;51.280;7.236;2024-03-29T02:01:04;2.60;;;1.53;;
870;SDS011;422;51.280;7.236;2024-03-29T02:03:33;4.17;;;1.70;;
870;SDS011;422;51.280;7.236;2024-03-29T02:06:00;2.80;;;1.30;;
870;SDS011;422;51.280;7.236;2024-03-29T02:08:28;3.10;;;1.80;;
870;SDS011;422;51.280;7.236;2024-03-29T02:10:56;3.70;;;1.70;;
870;SDS011;422;51.280;7.236;2024-03-29T02:13:24;4.83;;;2.00;;
870;SDS011;422;51.280;7.236;2024-03-29T02:15:53;7.80;;;2.13;;
870;SDS011;422;51.280;7.236;2024-03-29T02:18:20;3.80;;;1.93;;
870;SDS011;422;51.280;7.236;2024-03-29T02:20:47;3.70;;;1.97;;
870;SDS011;422;51.280;7.236;2024-03-29T02:23:16;4.73;;;2.10;;
870;SDS011;422;51.280;7.236;2024-03-29T02:25:47;4.83;;;2.07;;
870;SDS011;422;51.280;7.236;2024-03-29T02:28:15;5.70;;;1.80;;
870;SDS011;422;51.280;7.236;2024-03-29T02:30:43;3.33;;;1.87;;
870;SDS011;422;51.280;7.236;2024-03-29T02:33:10;3.53;;;2.00;;
870;SDS011;422;51.280;7.236;2024-03-29T02:35:37;3.80;;;2.10;;
870;SDS011;422;51.280;7.236;2024-03-29T02:38:05;4.90;;;1.93;;
870;SDS011;422;51.280;7.236;2024-03-29T02:40:32;4.40;;;1.90;;
870;SDS011;422;51.280;7.236;2024-03-29T02:43:00;5.00;;;1.93;;
870;SDS011;422;51.280;7.236;2024-03-29T02:45:28;3.80;;;2.27;;
870;SDS011;422;51.280;7.236;2024-03-29T02:47:55;3.50;;;1.80;;
870;SDS011;422;51.280;7.236;2024-03-29T02:50:21;2.97;;;1.90;;
870;SDS011;422;51.280;7.236;2024-03-29T02:52:48;3.13;;;2.30;;
870;SDS011;422;51.280;7.236;2024-03-29T02:55:16;10.43;;;2.53;;
870;SDS011;422;51.280;7.236;2024-03-29T02:57:42;2.30;;;1.60;;
870;SDS011;422;51.280;7.236;2024-03-29T03:00:11;4.20;;;2.40;;
870;SDS011;422;51.280;7.236;2024-03-29T03:02:38;4.40;;;2.13;;
870;SDS011;422;51.280;7.236;2024-03-29T03:05:06;8.10;;;2.17;;
870;SDS011;422;51.280;7.236;2024-03-29T03:07:33;3.73;;;2.00;;
870;SDS011;422;51.280;7.236;2024-03-29T03:10:18;3.77;;;1.93;;
870;SDS011;422;51.280;7.236;2024-03-29T03:13:03;3.30;;;1.60;;
870;SDS011;422;51.280;7.236;2024-03-29T03:15:32;5.43;;;2.43;;
870;SDS011;422;51.280;7.236;2024-03-29T03:17:59;3.53;;;1.80;;
870;SDS011;422;51.280;7.236;2024-03-29T03:20:26;4.70;;;1.97;;
870;SDS011;422;51.280;7.236;2024-03-29T03:22:57;5.63;;;1.67;;
870;SDS011;422;51.280;7.236;2024-03-29T03:25:24;3.27;;;1.80;;
870;SDS011;422;51.280;7.236;2024-03-29T03:27:52;6.17;;;2.07;;
870;SDS011;422;51.280;7.236;2024-03-29T03:30:19;4.93;;;1.73;;
870;SDS011;422;51.280;7.236;2024-03-29T03:32:47;3.43;;;1.83;;
870;SDS011;422;51.280;7.236;2024-03-29T03:35:14;2.93;;;1.97;;
870;SDS011;422;51.280;7.236;2024-03-29T03:37:40;4.83;;;2.10;;
870;SDS011;422;51.280;7.236;2024-03-29T03:40:08;3.20;;;2.20;;
870;SDS011;422;51.280;7.236;2024-03-29T03:42:34;4.13;;;2.23;;
870;SDS011;422;51.280;7.236;2024-03-29T03:45:02;4.93;;;2.60;;
870;SDS011;422;51.280;7.236;2024-03-29T03:47:29;3.63;;;2.80;;
870;SDS011;422;51.280;7.236;2024-03-29T03:49:57;2.87;;;1.97;;
870;SDS011;422;51.280;7.236;2024-03-29T03:52:24;2.60;;;1.73;;
870;SDS011;422;51.280;7.236;2024-03-29T03:54:51;4.50;;;1.97;;
870;SDS011;422;51.280;7.236;2024-03-29T03:57:17;4.57;;;1.63;;
870;SDS011;422;51.280;7.236;2024-03-29T03:59:44;3.70;;;2.03;;
870;SDS011;422;51.280;7.236;2024-03-29T04:02:10;4.83;;;2.20;;
870;SDS011;422;51.280;7.236;2024-03-29T04:04:38;3.80;;;2.07;;
870;SDS011;422;51.280;7.236;2024-03-29T04:07:05;3.27;;;2.23;;
870;SDS011;422;51.280;7.236;2024-03-29T04:09:32;5.33;;;3.40;;
870;SDS011;422;51.280;7.236;2024-03-29T04:11:59;5.40;;;2.20;;
870;SDS011;422;51.280;7.236;2024-03-29T04:14:26;3.80;;;2.13;;
870;SDS011;422;51.280;7.236;2024-03-29T04:16:53;3.80;;;2.10;;
870;SDS011;422;51.280;7.236;2024-03-29T04:19:19;4.50;;;2.40;;
870;SDS011;422;51.280;7.236;2024-03-29T04:21:46;4.47;;;2.00;;
870;SDS011;422;51.280;7.236;2024-03-29T04:24:14;3.70;;;2.10;;
870;SDS011;422;51.280;7.236;2024-03-29T04:26:41;3.20;;;2.23;;
870;SDS011;422;51.280;7.236;2024-03-29T04:29:09;3.93;;;2.13;;
870;SDS011;422;51.280;7.236;2024-03-29T04:31:37;4.17;;;2.03;;
870;SDS011;422;51.280;7.236;2024-03-29T04:34:03;5.63;;;2.10;;
870;SDS011;422;51.280;7.236;2024-03-29T04:36:31;5.57;;;2.20;;
870;SDS011;422;51.280;7.236;2024-03-29T04:38:57;6.70;;;2.43;;
870;SDS011;422;51.280;7.236;2024-03-29T04:41:25;6.03;;;2.50;;
870;SDS011;422;51.280;7.236;2024-03-29T04:43:53;4.70;;;2.17;;
870;SDS011;422;51.280;7.236;2024-03-29T04:46:20;5.10;;;2.00;;
870;SDS011;422;51.280;7.236;2024-03-29T04:48:47;3.80;;;2.17;;
870;SDS011;422;51.280;7.236;2024-03-29T04:51:16;3.53;;;1.80;;
870;SDS011;422;51.280;7.236;2024-03-29T04:53:43;3.87;;;2.23;;
870;SDS011;422;51.280;7.236;2024-03-29T04:56:10;4.83;;;2.20;;
870;SDS011;422;51.280;7.236;2024-03-29T04:58:39;5.73;;;2.80;;
870;SDS011;422;51.280;7.236;2024-03-29T05:01:07;5.33;;;2.43;;
870;SDS011;422;51.280;7.236;2024-03-29T05:03:34;3.80;;;2.40;;
870;SDS011;422;51.280;7.236;2024-03-29T05:06:01;3.80;;;2.23;;
870;SDS011;422;51.280;7.236;2024-03-29T05:08:29;4.20;;;2.60;;
870;SDS011;422;51.280;7.236;2024-03-29T05:10:56;7.70;;;2.73;;
870;SDS011;422;51.280;7.236;2024-03-29T05:13:24;4.83;;;2.27;;
870;SDS011;422;51.280;7.236;2024-03-29T05:15:52;7.10;;;2.77;;
870;SDS011;422;51.280;7.236;2024-03-29T05:18:20;4.43;;;2.20;;
870;SDS011;422;51.280;7.236;2024-03-29T05:20:47;6.43;;;2.47;;
870;SDS011;422;51.280;7.236;2024-03-29T05:23:16;3.00;;;2.23;;
870;SDS011;422;51.280;7.236;2024-03-29T05:25:43;3.27;;;1.90;;
870;SDS011;422;51.280;7.236;2024-03-29T05:28:10;6.40;;;2.67;;
870;SDS011;422;51.280;7.236;2024-03-29T05:30:37;4.60;;;2.63;;
870;SDS011;422;51.280;7.236;2024-03-29T05:33:06;7.30;;;2.53;;
870;SDS011;422;51.280;7.236;2024-03-29T05:35:33;5.23;;;2.30;;
870;SDS011;422;51.280;7.236;2024-03-29T05:38:00;5.97;;;2.93;;
870;SDS011;422;51.280;7.236;2024-03-29T05:40:28;2.80;;;1.90;;
870;SDS011;422;51.280;7.236;2024-03-29T05:42:55;4.57;;;2.57;;
870;SDS011;422;51.280;7.236;2024-03-29T05:45:23;3.67;;;2.10;;
870;SDS011;422;51.280;7.236;2024-03-29T05:47:52;5.07;;;2.73;;
870;SDS011;422;51.280;7.236;2024-03-29T05:50:22;4.70;;;2.20;;
870;SDS011;422;51.280;7.236;2024-03-29T05:52:50;5.67;;;2.77;;
870;SDS011;422;51.280;7.236;2024-03-29T05:55:18;4.10;;;2.17;;
870;SDS011;422;51.280;7.236;2024-03-29T05:57:45;6.67;;;2.73;;
870;SDS011;422;51.280;7.236;2024-03-29T06:00:14;4.93;;;2.40;;
870;SDS011;422;51.280;7.236;2024-03-29T06:02:42;3.77;;;2.43;;
870;SDS011;422;51.280;7.236;2024-03-29T06:05:11;7.67;;;2.60;;
870;SDS011;422;51.280;7.236;2024-03-29T06:07:39;5.77;;;2.40;;
870;SDS011;422;51.280;7.236;2024-03-29T06:10:07;4.90;;;2.40;;
870;SDS011;422;51.280;7.236;2024-03-29T06:12:35;3.17;;;2.10;;
870;SDS011;422;51.280;7.236;2024-03-29T06:15:04;5.80;;;2.80;;
870;SDS011;422;51.280;7.236;2024-03-29T06:17:50;4.80;;;2.13;;
870;SDS011;422;51.280;7.236;2024-03-29T06:20:17;3.20;;;2.20;;
870;SDS011;422;51.280;7.236;2024-03-29T06:22:46;8.13;;;3.50;;
870;SDS011;422;51.280;7.236;2024-03-29T06:25:13;7.17;;;4.33;;
870;SDS011;422;51.280;7.236;2024-03-29T06:27:41;6.43;;;4.30;;
870;SDS011;422;51.280;7.236;2024-03-29T06:30:13;7.63;;;4.20;;
870;SDS011;422;51.280;7.236;2024-03-29T06:32:41;4.33;;;3.73;;
870;SDS011;422;51.280;7.236;2024-03-29T06:35:10;5.53;;;3.13;;
870;SDS011;422;51.280;7.236;2024-03-29T06:37:37;7.50;;;4.60;;
870;SDS011;422;51.280;7.236;2024-03-29T06:40:07;5.80;;;3.93;;
870;SDS011;422;51.280;7.236;2024-03-29T06:42:35;7.10;;;5.17;;
870;SDS011;422;51.280;7.236;2024-03-29T06:45:02;5.87;;;3.80;;
870;SDS011;422;51.280;7.236;2024-03-29T06:47:31;4.20;;;3.13;;
870;SDS011;422;51.280;7.236;2024-03-29T06:49:58;13.30;;;7.30;;
870;SDS011;422;51.280;7.236;2024-03-29T06:52:25;7.17;;;5.20;;
870;SDS011;422;51.280;7.236;2024-03-29T06:54:52;6.47;;;4.17;;
870;SDS011;422;51.280;7.236;2024-03-29T06:57:21;11.00;;;5.73;;
870;SDS011;422;51.280;7.236;2024-03-29T06:59:50;11.83;;;8.13;;
870;SDS011;422;51.280;7.236;2024-03-29T07:02:18;4.53;;;3.50;;
870;SDS011;422;51.280;7.236;2024-03-29T07:04:45;5.90;;;4.03;;
870;SDS011;422;51.280;7.236;2024-03-29T07:07:12;6.20;;;3.80;;
870;SDS011;422;51.280;7.236;2024-03-29T07:09:39;6.77;;;4.03;;
870;SDS011;422;51.280;7.236;2024-03-29T07:12:07;5.10;;;3.93;;
870;SDS011;422;51.280;7.236;2024-03-29T07:14:35;6.73;;;4.30;;
870;SDS011;422;51.280;7.236;2024-03-29T07:17:03;5.20;;;2.50;;
870;SDS011;422;51.280;7.236;2024-03-29T07:19:31;5.07;;;3.00;;
870;SDS011;422;51.280;7.236;2024-03-29T07:21:58;4.23;;;3.50;;
870;SDS011;422;51.280;7.236;2024-03-29T07:24:25;3.77;;;2.20;;
870;SDS011;422;51.280;7.236;2024-03-29T07:26:52;5.97;;;2.30;;
870;SDS011;422;51.280;7.236;2024-03-29T07:29:20;4.70;;;3.77;;
870;SDS011;422;51.280;7.236;2024-03-29T07:31:48;3.40;;;2.23;;
870;SDS011;422;51.280;7.236;2024-03-29T07:34:16;7.70;;;3.57;;
870;SDS011;422;51.280;7.236;2024-03-29T07:36:43;5.93;;;3.30;;
870;SDS011;422;51.280;7.236;2024-03-29T07:39:10;9.37;;;3.80;;
870;SDS011;422;51.280;7.236;2024-03-29T07:41:37;4.80;;;2.60;;
870;SDS011;422;51.280;7.236;2024-03-29T07:44:05;5.67;;;3.30;;
870;SDS011;422;51.280;7.236;2024-03-29T07:46:33;4.17;;;3.10;;
870;SDS011;422;51.280;7.236;2024-03-29T07:49:04;6.90;;;3.37;;
870;SDS011;422;51.280;7.236;2024-03-29T07:51:31;5.70;;;2.90;;
870;SDS011;422;51.280;7.236;2024-03-29T07:53:58;6.73;;;3.60;;
870;SDS011;422;51.280;7.236;2024-03-29T07:56:26;3.80;;;2.47;;
870;SDS011;422;51.280;7.236;2024-03-29T07:58:53;4.97;;;2.70;;
870;SDS011;422;51.280;7.236;2024-03-29T08:01:21;3.17;;;2.07;;
870;SDS011;422;51.280;7.236;2024-03-29T08:03:50;5.67;;;2.57;;
870;SDS011;422;51.280;7.236;2024-03-29T08:06:21;3.73;;;2.37;;
870;SDS011;422;51.280;7.236;2024-03-29T08:08:49;7.67;;;3.30;;
870;SDS011;422;51.280;7.236;2024-03-29T08:11:17;3.80;;;2.20;;
870;SDS011;422;51.280;7.236;2024-03-29T08:13:44;3.73;;;2.63;;
870;SDS011;422;51.280;7.236;2024-03-29T08:16:11;4.00;;;2.13;;
870;SDS011;422;51.280;7.236;2024-03-29T08:18:42;3.37;;;1.60;;
870;SDS011;422;51.280;7.236;2024-03-29T08:21:09;4.40;;;2.00;;
870;SDS011;422;51.280;7.236;2024-03-29T08:23:40;2.90;;;2.30;;
870;SDS011;422;51.280;7.236;2024-03-29T08:26:10;3.63;;;2.30;;
870;SDS011;422;51.280;7.236;2024-03-29T08:28:37;3.90;;;2.30;;
870;SDS011;422;51.280;7.236;2024-03-29T08:31:05;4.17;;;2.37;;
870;SDS011;422;51.280;7.236;2024-03-29T08:33:34;3.10;;;2.10;;
870;SDS011;422;51.280;7.236;2024-03-29T08:36:04;3.27;;;1.90;;
870;SDS011;422;51.280;7.236;2024-03-29T08:38:33;2.70;;;1.87;;
870;SDS011;422;51.280;7.236;2024-03-29T08:41:03;5.03;;;2.47;;
870;SDS011;422;51.280;7.236;2024-03-29T08:43:30;3.57;;;2.40;;
870;SDS011;422;51.280;7.236;2024-03-29T08:45:57;3.37;;;1.60;;
870;SDS011;422;51.280;7.236;2024-03-29T08:48:26;3.43;;;1.80;;
870;SDS011;422;51.280;7.236;2024-03-29T08:50:54;4.40;;;2.10;;
870;SDS011;422;51.280;7.236;2024-03-29T08:53:21;3.67;;;1.90;;
870;SDS011;422;51.280;7.236;2024-03-29T08:55:48;2.97;;;1.90;;
870;SDS011;422;51.280;7.236;2024-03-29T08:58:17;2.90;;;1.80;;
870;SDS011;422;51.280;7.236;2024-03-29T09:00:52;3.90;;;2.00;;
870;SDS011;422;51.280;7.236;2024-03-29T09:03:20;2.90;;;2.13;;
870;SDS011;422;51.280;7.236;2024-03-29T09:05:48;3.73;;;2.00;;
870;SDS011;422;51.280;7.236;2024-03-29T09:08:16;3.20;;;1.97;;
870;SDS011;422;51.280;7.236;2024-03-29T09:10:45;2.80;;;1.80;;
870;SDS011;422;51.280;7.236;2024-03-29T09:13:13;4.07;;;1.93;;
870;SDS011;422;51.280;7.236;2024-03-29T09:15:42;3.47;;;1.80;;
870;SDS011;422;51.280;7.236;2024-03-29T09:18:09;3.53;;;1.80;;
870;SDS011;422;51.280;7.236;2024-03-29T09:20:42;4.10;;;2.40;;
870;SDS011;422;51.280;7.236;2024-03-29T09:23:11;3.50;;;1.93;;
870;SDS011;422;51.280;7.236;2024-03-29T09:25:42;5.83;;;2.40;;
870;SDS011;422;51.280;7.236;2024-03-29T09:28:10;2.60;;;1.60;;
870;SDS011;422;51.280;7.236;2024-03-29T09:30:37;4.20;;;2.00;;
870;SDS011;422;51.280;7.236;2024-03-29T09:33:06;2.63;;;2.00;;
870;SDS011;422;51.280;7.236;2024-03-29T09:35:36;2.93;;;2.00;;
870;SDS011;422;51.280;7.236;2024-03-29T09:38:04;3.33;;;1.90;;
870;SDS011;422;51.280;7.236;2024-03-29T09:40:31;7.37;;;6.60;;
870;SDS011;422;51.280;7.236;2024-03-29T09:43:00;4.97;;;3.57;;
870;SDS011;422;51.280;7.236;2024-03-29T09:45:29;4.57;;;2.20;;
870;SDS011;422;51.280;7.236;2024-03-29T09:48:00;3.00;;;2.10;;
870;SDS011;422;51.280;7.236;2024-03-29T09:50:31;14.00;;;9.20;;
870;SDS011;422;51.280;7.236;2024-03-29T09:52:58;7.03;;;4.43;;
870;SDS011;422;51.280;7.236;2024-03-29T09:55:26;4.60;;;3.10;;
870;SDS011;422;51.280;7.236;2024-03-29T09:57:54;3.37;;;2.37;;
870;SDS011;422;51.280;7.236;2024-03-29T10:00:22;4.57;;;2.60;;
870;SDS011;422;51.280;7.236;2024-03-29T10:02:50;3.00;;;1.97;;
870;SDS011;422;51.280;7.236;2024-03-29T10:05:22;4.63;;;2.07;;
870;SDS011;422;51.280;7.236;2024-03-29T10:07:53;3.00;;;1.57;;
870;SDS011;422;51.280;7.236;2024-03-29T10:10:21;2.40;;;1.80;;
870;SDS011;422;51.280;7.236;2024-03-29T10:12:50;3.33;;;3.00;;
870;SDS011;422;51.280;7.236;2024-03-29T10:15:17;3.60;;;2.63;;
870;SDS011;422;51.280;7.236;2024-03-29T10:17:46;5.60;;;4.70;;
870;SDS011;422;51.280;7.236;2024-03-29T10:20:15;4.23;;;3.17;;
870;SDS011;422;51.280;7.236;2024-03-29T10:22:44;6.00;;;4.30;;
870;SDS011;422;51.280;7.236;2024-03-29T10:25:14;3.37;;;3.07;;
870;SDS011;422;51.280;7.236;2024-03-29T10:27:42;2.80;;;2.10;;
870;SDS011;422;51.280;7.236;2024-03-29T10:30:11;3.97;;;3.20;;
870;SDS011;422;51.280;7.236;2024-03-29T10:32:42;3.37;;;3.03;;
870;SDS011;422;51.280;7.236;2024-03-29T10:35:10;4.10;;;3.70;;
870;SDS011;422;51.280;7.236;2024-03-29T10:37:37;4.60;;;3.37;;
870;SDS011;422;51.280;7.236;2024-03-29T10:40:09;3.97;;;3.20;;
870;SDS011;422;51.280;7.236;2024-03-29T10:42:42;5.13;;;2.80;;
870;SDS011;422;51.280;7.236;2024-03-29T10:45:13;2.97;;;1.80;;
870;SDS011;422;51.280;7.236;2024-03-29T10:47:42;2.87;;;2.27;;
870;SDS011;422;51.280;7.236;2024-03-29T10:50:12;5.37;;;3.40;;
870;SDS011;422;51.280;7.236;2024-03-29T10:52:39;3.93;;;2.40;;
870;SDS011;422;51.280;7.236;2024-03-29T10:55:07;4.13;;;3.10;;
870;SDS011;422;51.280;7.236;2024-03-29T10:57:38;3.07;;;2.33;;
870;SDS011;422;51.280;7.236;2024-03-29T11:00:11;2.50;;;2.10;;
870;SDS011;422;51.280;7.236;2024-03-29T11:02:46;6.83;;;2.30;;
870;SDS011;422;51.280;7.236;2024-03-29T11:05:16;2.47;;;2.10;;
870;SDS011;422;51.280;7.236;2024-03-29T11:07:45;2.77;;;2.17;;
870;SDS011;422;51.280;7.236;2024-03-29T11:10:20;3.77;;;2.00;;
870;SDS011;422;51.280;7.236;2024-03-29T11:12:59;3.00;;;2.67;;
870;SDS011;422;51.280;7.236;2024-03-29T11:15:29;2.10;;;1.40;;
870;SDS011;422;51.280;7.236;2024-03-29T11:17:57;3.37;;;1.70;;
870;SDS011;422;51.280;7.236;2024-03-29T11:20:25;2.60;;;1.80;;
870;SDS011;422;51.280;7.236;2024-03-29T11:23:02;2.70;;;1.70;;
870;SDS011;422;51.280;7.236;2024-03-29T11:25:41;3.00;;;1.70;;
870;SDS011;422;51.280;7.236;2024-03-29T11:28:21;2.90;;;2.00;;
870;SDS011;422;51.280;7.236;2024-03-29T11:30:51;2.47;;;1.73;;
870;SDS011;422;51.280;7.236;2024-03-29T11:33:26;2.10;;;1.70;;
870;SDS011;422;51.280;7.236;2024-03-29T11:35:55;2.97;;;1.80;;
870;SDS011;422;51.280;7.236;2024-03-29T11:38:28;2.20;;;2.00;;
870;SDS011;422;51.280;7.236;2024-03-29T11:41:04;3.30;;;1.93;;
870;SDS011;422;51.280;7.236;2024-03-29T11:43:34;2.63;;;2.10;;
870;SDS011;422;51.280;7.236;2024-03-29T11:46:04;2.57;;;1.90;;
870;SDS011;422;51.280;7.236;2024-03-29T11:48:35;3.70;;;2.27;;
870;SDS011;422;51.280;7.236;2024-03-29T11:51:04;2.27;;;1.87;;
870;SDS011;422;51.280;7.236;2024-03-29T11:53:33;4.03;;;2.80;;
870;SDS011;422;51.280;7.236;2024-03-29T11:56:02;2.80;;;1.80;;
870;SDS011;422;51.280;7.236;2024-03-29T11:58:31;3.23;;;1.80;;
870;SDS011;422;51.280;7.236;2024-03-29T12:01:01;2.30;;;2.00;;
870;SDS011;422;51.280;7.236;2024-03-29T12:03:31;3.47;;;1.90;;
870;SDS011;422;51.280;7.236;2024-03-29T12:05:59;2.93;;;1.70;;
870;SDS011;422;51.280;7.236;2024-03-29T12:08:28;3.33;;;1.90;;
870;SDS011;422;51.280;7.236;2024-03-29T12:10:58;3.33;;;1.97;;
870;SDS011;422;51.280;7.236;2024-03-29T12:13:26;4.33;;;1.93;;
870;SDS011;422;51.280;7.236;2024-03-29T12:15:55;3.60;;;1.90;;
870;SDS011;422;51.280;7.236;2024-03-29T12:18:24;2.40;;;1.90;;
870;SDS011;422;51.280;7.236;2024-03-29T12:20:53;2.57;;;1.97;;
870;SDS011;422;51.280;7.236;2024-03-29T12:23:21;2.33;;;1.83;;
870;SDS011;422;51.280;7.236;2024-03-29T12:25:50;2.40;;;1.80;;
870;SDS011;422;51.280;7.236;2024-03-29T12:28:20;2.57;;;1.90;;
870;SDS011;422;51.280;7.236;2024-03-29T12:30:50;2.20;;;1.70;;
870;SDS011;422;51.280;7.236;2024-03-29T12:33:22;2.20;;;1.83;;
870;SDS011;422;51.280;7.236;2024-03-29T12:35:51;2.73;;;1.90;;
870;SDS011;422;51.280;7.236;2024-03-29T12:38:20;4.27;;;1.83;;
870;SDS011;422;51.280;7.236;2024-03-29T12:40:52;3.63;;;1.93;;
870;SDS011;422;51.280;7.236;2024-03-29T12:43:22;3.47;;;2.43;;
870;SDS011;422;51.280;7.236;2024-03-29T12:45:51;4.70;;;2.30;;
870;SDS011;422;51.280;7.236;2024-03-29T12:48:20;2.97;;;1.87;;
870;SDS011;422;51.280;7.236;2024-03-29T12:50:49;3.20;;;2.00;;
870;SDS011;422;51.280;7.236;2024-03-29T12:53:17;3.27;;;1.83;;
870;SDS011;422;51.280;7.236;2024-03-29T12:55:46;2.70;;;2.10;;
870;SDS011;422;51.280;7.236;2024-03-29T12:58:14;4.40;;;1.97;;
870;SDS011;422;51.280;7.236;2024-03-29T13:00:46;3.03;;;1.97;;
870;SDS011;422;51.280;7.236;2024-03-29T13:03:13;2.40;;;1.90;;
870;SDS011;422;51.280;7.236;2024-03-29T13:05:43;4.27;;;2.57;;
870;SDS011;422;51.280;7.236;2024-03-29T13:08:12;2.23;;;1.60;;
870;SDS011;422;51.280;7.236;2024-03-29T13:10:41;2.70;;;1.80;;
870;SDS011;422;51.280;7.236;2024-03-29T13:13:09;2.17;;;1.53;;
870;SDS011;422;51.280;7.236;2024-03-29T13:15:37;2.17;;;1.30;;
870;SDS011;422;51.280;7.236;2024-03-29T13:18:06;2.60;;;1.80;;
870;SDS011;422;51.280;7.236;2024-03-29T13:20:35;4.00;;;1.90;;
870;SDS011;422;51.280;7.236;2024-03-29T13:23:07;2.40;;;1.50;;
870;SDS011;422;51.280;7.236;2024-03-29T13:25:35;4.20;;;1.70;;
870;SDS011;422;51.280;7.236;2024-03-29T13:28:04;2.47;;;1.67;;
870;SDS011;422;51.280;7.236;2024-03-29T13:30:33;3.70;;;1.80;;
870;SDS011;422;51.280;7.236;2024-03-29T13:33:08;2.40;;;1.90;;
870;SDS011;422;51.280;7.236;2024-03-29T13:35:36;2.60;;;1.80;;
870;SDS011;422;51.280;7.236;2024-03-29T13:38:05;2.73;;;1.50;;
870;SDS011;422;51.280;7.236;2024-03-29T13:40:34;2.60;;;1.97;;
870;SDS011;422;51.280;7.236;2024-03-29T13:43:02;2.40;;;1.70;;
870;SDS011;422;51.280;7.236;2024-03-29T13:45:32;3.37;;;1.60;;
870;SDS011;422;51.280;7.236;2024-03-29T13:48:03;2.77;;;1.80;;
870;SDS011;422;51.280;7.236;2024-03-29T13:50:33;5.40;;;3.23;;
870;SDS011;422;51.280;7.236;2024-03-29T13:53:01;5.70;;;2.80;;
870;SDS011;422;51.280;7.236;2024-03-29T13:55:30;15.53;;;11.07;;
870;SDS011;422;51.280;7.236;2024-03-29T13:57:58;7.70;;;5.17;;
870;SDS011;422;51.280;7.236;2024-03-29T14:00:25;16.33;;;10.77;;
870;SDS011;422;51.280;7.236;2024-03-29T14:02:53;19.80;;;12.60;;
870;SDS011;422;51.280;7.236;2024-03-29T14:05:21;17.20;;;11.20;;
870;SDS011;422;51.280;7.236;2024-03-29T14:07:49;9.00;;;6.90;;
870;SDS011;422;51.280;7.236;2024-03-29T14:10:16;10.10;;;6.67;;
870;SDS011;422;51.280;7.236;2024-03-29T14:12:46;6.10;;;4.90;;
870;SDS011;422;51.280;7.236;2024-03-29T14:15:17;9.97;;;6.33;;
870;SDS011;422;51.280;7.236;2024-03-29T14:17:45;9.20;;;5.77;;
870;SDS011;422;51.280;7.236;2024-03-29T14:20:13;6.57;;;5.00;;
870;SDS011;422;51.280;7.236;2024-03-29T14:22:40;4.03;;;3.07;;
870;SDS011;422;51.280;7.236;2024-03-29T14:25:08;7.40;;;5.30;;
870;SDS011;422;51.280;7.236;2024-03-29T14:27:37;12.90;;;8.90;;
870;SDS011;422;51.280;7.236;2024-03-29T14:30:21;8.40;;;4.93;;
870;SDS011;422;51.280;7.236;2024-03-29T14:32:49;7.70;;;5.30;;
870;SDS011;422;51.280;7.236;2024-03-29T14:35:18;4.80;;;3.50;;
870;SDS011;422;51.280;7.236;2024-03-29T14:37:46;6.90;;;4.13;;
870;SDS011;422;51.280;7.236;2024-03-29T14:40:14;6.00;;;2.80;;
870;SDS011;422;51.280;7.236;2024-03-29T14:42:41;6.73;;;4.40;;
870;SDS011;422;51.280;7.236;2024-03-29T14:45:10;3.40;;;2.70;;
870;SDS011;422;51.280;7.236;2024-03-29T14:47:42;2.50;;;2.20;;
870;SDS011;422;51.280;7.236;2024-03-29T14:50:09;3.30;;;2.27;;
870;SDS011;422;51.280;7.236;2024-03-29T14:52:37;5.77;;;4.30;;
870;SDS011;422;51.280;7.236;2024-03-29T14:55:05;3.73;;;3.20;;
870;SDS011;422;51.280;7.236;2024-03-29T14:57:34;3.20;;;2.60;;
870;SDS011;422;51.280;7.236;2024-03-29T15:00:00;4.47;;;3.60;;
870;SDS011;422;51.280;7.236;2024-03-29T15:02:29;3.67;;;3.37;;
870;SDS011;422;51.280;7.236;2024-03-29T15:05:00;3.60;;;3.13;;
870;SDS011;422;51.280;7.236;2024-03-29T15:07:31;4.57;;;3.37;;
870;SDS011;422;51.280;7.236;2024-03-29T15:09:59;3.43;;;2.90;;
870;SDS011;422;51.280;7.236;2024-03-29T15:12:30;3.23;;;2.90;;
870;SDS011;422;51.280;7.236;2024-03-29T15:14:58;3.07;;;2.63;;
870;SDS011;422;51.280;7.236;2024-03-29T15:17:26;4.30;;;2.70;;
870;SDS011;422;51.280;7.236;2024-03-29T15:19:53;2.73;;;2.47;;
870;SDS011;422;51.280;7.236;2024-03-29T15:22:22;5.73;;;5.13;;
870;SDS011;422;51.280;7.236;2024-03-29T15:24:50;3.10;;;2.63;;
870;SDS011;422;51.280;7.236;2024-03-29T15:27:19;4.00;;;3.00;;
870;SDS011;422;51.280;7.236;2024-03-29T15:30:13;2.57;;;1.87;;
870;SDS011;422;51.280;7.236;2024-03-29T15:32:40;3.07;;;2.20;;
870;SDS011;422;51.280;7.236;2024-03-29T15:35:08;4.27;;;2.10;;
870;SDS011;422;51.280;7.236;2024-03-29T15:37:38;2.87;;;2.40;;
870;SDS011;422;51.280;7.236;2024-03-29T15:40:06;3.40;;;1.90;;
870;SDS011;422;51.280;7.236;2024-03-29T15:42:35;4.00;;;2.03;;
870;SDS011;422;51.280;7.236;2024-03-29T15:45:06;2.80;;;2.50;;
870;SDS011;422;51.280;7.236;2024-03-29T15:47:36;2.87;;;2.10;;
870;SDS011;422;51.280;7.236;2024-03-29T15:50:04;2.90;;;2.03;;
870;SDS011;422;51.280;7.236;2024-03-29T15:52:33;3.10;;;2.30;;